sensor_id;sensor_type;location;lat;lon;timestamp;temperature;humidity
51733;DHT22;39139;53.144;6.244;2023-02-01T00:01:55;6.40;99.90
51733;DHT22;39139;53.144;6.244;2023-02-01T00:04:21;6.40;99.90
51733;DHT22;39139;53.144;6.244;2023-02-01T00:06:47;6.40;99.90
51733;DHT22;39139;53.144;6.244;2023-02-01T00:09:13;6.30;99.90
51733;DHT22;39139;53.144;6.244;2023-02-01T00:11:40;6.30;99.90
51733;DHT22;39139;53.144;6.244;2023-02-01T00:14:06;6.30;99.90
51733;DHT22;39139;53.144;6.244;2023-02-01T00:16:33;6.60;99.90
51733;DHT22;39139;53.144;6.244;2023-02-01T00:19:03;6.30;99.90
51733;DHT22;39139;53.144;6.244;2023-02-01T00:21:29;6.30;99.90
51733;DHT22;39139;53.144;6.244;2023-02-01T00:23:54;6.30;99.90
51733;DHT22;39139;53.144;6.244;2023-02-01T00:28:53;6.40;99.90
51733;DHT22;39139;53.144;6.244;2023-02-01T00:31:19;6.30;99.90
51733;DHT22;39139;53.144;6.244;2023-02-01T00:33:47;6.50;99.90
51733;DHT22;39139;53.144;6.244;2023-02-01T00:36:13;6.40;99.90
51733;DHT22;39139;53.144;6.244;2023-02-01T00:38:39;6.50;99.90
51733;DHT22;39139;53.144;6.244;2023-02-01T00:41:10;6.40;99.90
51733;DHT22;39139;53.144;6.244;2023-02-01T00:43:36;7.40;99.90
51733;DHT22;39139;53.144;6.244;2023-02-01T00:46:02;6.40;99.90
51733;DHT22;39139;53.144;6.244;2023-02-01T00:48:29;6.40;99.90
51733;DHT22;39139;53.144;6.244;2023-02-01T00:50:54;6.40;99.90
51733;DHT22;39139;53.144;6.244;2023-02-01T00:53:23;6.30;99.90
51733;DHT22;39139;53.144;6.244;2023-02-01T00:55:49;6.30;99.90
51733;DHT22;39139;53.144;6.244;2023-02-01T00:58:15;6.30;99.90
51733;DHT22;39139;53.144;6.244;2023-02-01T01:00:40;6.40;99.90
51733;DHT22;39139;53.144;6.244;2023-02-01T01:03:06;6.30;99.90
51733;DHT22;39139;53.144;6.244;2023-02-01T01:05:56;6.30;99.90
51733;DHT22;39139;53.144;6.244;2023-02-01T01:08:22;6.40;99.90
51733;DHT22;39139;53.144;6.244;2023-02-01T01:10:48;6.40;99.90
51733;DHT22;39139;53.144;6.244;2023-02-01T01:13:14;6.50;99.90
51733;DHT22;39139;53.144;6.244;2023-02-01T01:15:41;6.40;99.90
51733;DHT22;39139;53.144;6.244;2023-02-01T01:18:07;6.40;99.90
51733;DHT22;39139;53.144;6.244;2023-02-01T01:20:38;6.50;99.90
51733;DHT22;39139;53.144;6.244;2023-02-01T01:23:05;6.50;99.90
51733;DHT22;39139;53.144;6.244;2023-02-01T01:25:31;6.40;99.90
51733;DHT22;39139;53.144;6.244;2023-02-01T01:27:56;7.00;99.90
51733;DHT22;39139;53.144;6.244;2023-02-01T01:30:22;6.40;99.90
51733;DHT22;39139;53.144;6.244;2023-02-01T01:32:48;6.40;99.90
51733;DHT22;39139;53.144;6.244;2023-02-01T01:35:14;6.50;99.90
51733;DHT22;39139;53.144;6.244;2023-02-01T01:37:39;6.50;99.90
51733;DHT22;39139;53.144;6.244;2023-02-01T01:40:07;6.50;99.90
51733;DHT22;39139;53.144;6.244;2023-02-01T01:42:43;6.40;99.90
51733;DHT22;39139;53.144;6.244;2023-02-01T01:45:32;6.40;99.90
51733;DHT22;39139;53.144;6.244;2023-02-01T01:48:05;6.30;99.90
51733;DHT22;39139;53.144;6.244;2023-02-01T01:50:36;6.30;99.90
51733;DHT22;39139;53.144;6.244;2023-02-01T01:53:05;6.20;99.90
51733;DHT22;39139;53.144;6.244;2023-02-01T01:55:35;6.20;99.90
51733;DHT22;39139;53.144;6.244;2023-02-01T01:58:06;6.10;99.90
51733;DHT22;39139;53.144;6.244;2023-02-01T02:00:32;6.10;99.90
51733;DHT22;39139;53.144;6.244;2023-02-01T02:03:14;6.00;99.90
51733;DHT22;39139;53.144;6.244;2023-02-01T02:05:41;7.00;99.90
51733;DHT22;39139;53.144;6.244;2023-02-01T02:08:06;6.30;99.90
51733;DHT22;39139;53.144;6.244;2023-02-01T02:10:32;6.00;99.90
51733;DHT22;39139;53.144;6.244;2023-02-01T02:13:18;6.10;99.90
51733;DHT22;39139;53.144;6.244;2023-02-01T02:18:55;5.90;99.90
51733;DHT22;39139;53.144;6.244;2023-02-01T02:24:43;5.90;99.90
51733;DHT22;39139;53.144;6.244;2023-02-01T02:28:07;5.90;99.90
51733;DHT22;39139;53.144;6.244;2023-02-01T02:30:22;5.90;99.90
51733;DHT22;39139;53.144;6.244;2023-02-01T02:33:18;5.80;99.90
51733;DHT22;39139;53.144;6.244;2023-02-01T02:38:43;5.90;99.90
51733;DHT22;39139;53.144;6.244;2023-02-01T02:41:15;6.00;99.90
51733;DHT22;39139;53.144;6.244;2023-02-01T02:44:12;6.00;99.90
51733;DHT22;39139;53.144;6.244;2023-02-01T02:47:02;6.00;99.90
51733;DHT22;39139;53.144;6.244;2023-02-01T02:53:48;6.10;99.90
51733;DHT22;39139;53.144;6.244;2023-02-01T02:56:24;6.10;99.90
51733;DHT22;39139;53.144;6.244;2023-02-01T02:59:13;6.20;99.90
51733;DHT22;39139;53.144;6.244;2023-02-01T03:01:58;6.20;99.90
51733;DHT22;39139;53.144;6.244;2023-02-01T03:04:42;6.20;99.90
51733;DHT22;39139;53.144;6.244;2023-02-01T03:13:22;6.30;99.90
51733;DHT22;39139;53.144;6.244;2023-02-01T03:21:04;6.30;99.90
51733;DHT22;39139;53.144;6.244;2023-02-01T03:23:33;6.30;99.90
51733;DHT22;39139;53.144;6.244;2023-02-01T03:26:02;6.40;99.90
51733;DHT22;39139;53.144;6.244;2023-02-01T03:28:31;6.30;99.90
51733;DHT22;39139;53.144;6.244;2023-02-01T03:30:58;6.30;99.90
51733;DHT22;39139;53.144;6.244;2023-02-01T03:33:25;6.30;99.90
51733;DHT22;39139;53.144;6.244;2023-02-01T03:36:10;6.40;99.90
51733;DHT22;39139;53.144;6.244;2023-02-01T03:38:54;6.40;99.90
51733;DHT22;39139;53.144;6.244;2023-02-01T03:41:42;6.40;99.90
51733;DHT22;39139;53.144;6.244;2023-02-01T03:44:29;6.50;99.90
51733;DHT22;39139;53.144;6.244;2023-02-01T03:47:03;6.50;99.90
51733;DHT22;39139;53.144;6.244;2023-02-01T03:49:57;6.40;99.90
51733;DHT22;39139;53.144;6.244;2023-02-01T03:52:40;6.40;99.90
51733;DHT22;39139;53.144;6.244;2023-02-01T03:55:07;6.50;99.90
51733;DHT22;39139;53.144;6.244;2023-02-01T03:57:37;6.40;99.90
51733;DHT22;39139;53.144;6.244;2023-02-01T04:00:20;6.40;99.90
51733;DHT22;39139;53.144;6.244;2023-02-01T04:02:47;6.30;99.90
51733;DHT22;39139;53.144;6.244;2023-02-01T04:05:13;6.30;99.90
51733;DHT22;39139;53.144;6.244;2023-02-01T04:07:39;6.40;99.90
51733;DHT22;39139;53.144;6.244;2023-02-01T04:10:05;6.70;99.90
51733;DHT22;39139;53.144;6.244;2023-02-01T04:12:31;6.40;99.90
51733;DHT22;39139;53.144;6.244;2023-02-01T04:14:56;6.40;99.90
51733;DHT22;39139;53.144;6.244;2023-02-01T04:17:22;6.40;99.90
51733;DHT22;39139;53.144;6.244;2023-02-01T04:19:47;6.50;99.90
51733;DHT22;39139;53.144;6.244;2023-02-01T04:22:13;6.40;99.90
51733;DHT22;39139;53.144;6.244;2023-02-01T04:24:39;6.40;99.90
51733;DHT22;39139;53.144;6.244;2023-02-01T04:27:05;6.40;99.90
51733;DHT22;39139;53.144;6.244;2023-02-01T04:29:30;6.30;99.90
51733;DHT22;39139;53.144;6.244;2023-02-01T04:31:56;6.40;99.90
51733;DHT22;39139;53.144;6.244;2023-02-01T04:34:21;6.80;99.90
51733;DHT22;39139;53.144;6.244;2023-02-01T04:36:48;6.60;99.90
51733;DHT22;39139;53.144;6.244;2023-02-01T04:39:14;6.40;99.90
51733;DHT22;39139;53.144;6.244;2023-02-01T04:41:40;6.40;99.90
51733;DHT22;39139;53.144;6.244;2023-02-01T04:44:06;6.40;99.90
51733;DHT22;39139;53.144;6.244;2023-02-01T04:46:31;6.40;99.90
51733;DHT22;39139;53.144;6.244;2023-02-01T04:48:57;6.40;99.90
51733;DHT22;39139;53.144;6.244;2023-02-01T04:51:23;6.30;99.90
51733;DHT22;39139;53.144;6.244;2023-02-01T04:53:48;6.40;99.90
51733;DHT22;39139;53.144;6.244;2023-02-01T04:56:14;6.20;99.90
51733;DHT22;39139;53.144;6.244;2023-02-01T04:58:39;6.20;99.90
51733;DHT22;39139;53.144;6.244;2023-02-01T05:01:06;6.30;99.90
51733;DHT22;39139;53.144;6.244;2023-02-01T05:03:32;6.30;99.90
51733;DHT22;39139;53.144;6.244;2023-02-01T05:05:58;6.30;99.90
51733;DHT22;39139;53.144;6.244;2023-02-01T05:08:24;6.20;99.90
51733;DHT22;39139;53.144;6.244;2023-02-01T05:10:51;6.30;99.90
51733;DHT22;39139;53.144;6.244;2023-02-01T05:13:17;6.30;99.90
51733;DHT22;39139;53.144;6.244;2023-02-01T05:16:01;6.30;99.90
51733;DHT22;39139;53.144;6.244;2023-02-01T05:18:27;6.40;99.90
51733;DHT22;39139;53.144;6.244;2023-02-01T05:20:53;6.70;99.90
51733;DHT22;39139;53.144;6.244;2023-02-01T05:23:19;6.40;99.90
51733;DHT22;39139;53.144;6.244;2023-02-01T05:25:45;6.60;99.90
51733;DHT22;39139;53.144;6.244;2023-02-01T05:28:11;6.70;99.90
51733;DHT22;39139;53.144;6.244;2023-02-01T05:30:36;6.40;99.90
51733;DHT22;39139;53.144;6.244;2023-02-01T05:33:02;6.40;99.90
51733;DHT22;39139;53.144;6.244;2023-02-01T05:35:28;6.50;99.90
51733;DHT22;39139;53.144;6.244;2023-02-01T05:37:53;6.50;99.90
51733;DHT22;39139;53.144;6.244;2023-02-01T05:40:19;6.60;99.90
51733;DHT22;39139;53.144;6.244;2023-02-01T05:42:45;6.70;99.90
51733;DHT22;39139;53.144;6.244;2023-02-01T05:45:11;6.70;99.90
51733;DHT22;39139;53.144;6.244;2023-02-01T05:47:36;6.70;99.90
51733;DHT22;39139;53.144;6.244;2023-02-01T05:50:03;6.70;99.90
51733;DHT22;39139;53.144;6.244;2023-02-01T05:52:29;6.70;99.90
51733;DHT22;39139;53.144;6.244;2023-02-01T05:54:54;7.90;99.90
51733;DHT22;39139;53.144;6.244;2023-02-01T05:57:20;6.60;99.90
51733;DHT22;39139;53.144;6.244;2023-02-01T05:59:46;6.60;99.90
51733;DHT22;39139;53.144;6.244;2023-02-01T06:02:13;6.60;99.90
51733;DHT22;39139;53.144;6.244;2023-02-01T06:04:39;6.50;99.90
51733;DHT22;39139;53.144;6.244;2023-02-01T06:07:05;6.50;99.90
51733;DHT22;39139;53.144;6.244;2023-02-01T06:09:33;6.50;99.90
51733;DHT22;39139;53.144;6.244;2023-02-01T06:11:59;7.00;99.90
51733;DHT22;39139;53.144;6.244;2023-02-01T06:14:26;6.50;99.90
51733;DHT22;39139;53.144;6.244;2023-02-01T06:16:53;6.40;99.90
51733;DHT22;39139;53.144;6.244;2023-02-01T06:19:19;6.30;99.90
51733;DHT22;39139;53.144;6.244;2023-02-01T06:21:45;6.20;99.90
51733;DHT22;39139;53.144;6.244;2023-02-01T06:24:11;6.20;99.90
51733;DHT22;39139;53.144;6.244;2023-02-01T06:26:36;6.20;99.90
51733;DHT22;39139;53.144;6.244;2023-02-01T06:29:04;6.20;99.90
51733;DHT22;39139;53.144;6.244;2023-02-01T06:31:32;6.10;99.90
51733;DHT22;39139;53.144;6.244;2023-02-01T06:33:57;6.10;99.90
51733;DHT22;39139;53.144;6.244;2023-02-01T06:36:23;6.10;99.90
51733;DHT22;39139;53.144;6.244;2023-02-01T06:38:49;6.20;99.90
51733;DHT22;39139;53.144;6.244;2023-02-01T06:41:15;6.20;99.90
51733;DHT22;39139;53.144;6.244;2023-02-01T06:43:40;6.20;99.90
51733;DHT22;39139;53.144;6.244;2023-02-01T06:46:08;6.30;99.90
51733;DHT22;39139;53.144;6.244;2023-02-01T06:48:35;6.30;99.90
51733;DHT22;39139;53.144;6.244;2023-02-01T06:51:00;6.40;99.90
51733;DHT22;39139;53.144;6.244;2023-02-01T06:53:26;6.50;99.90
51733;DHT22;39139;53.144;6.244;2023-02-01T06:55:57;6.50;99.90
51733;DHT22;39139;53.144;6.244;2023-02-01T06:58:23;6.40;99.90
51733;DHT22;39139;53.144;6.244;2023-02-01T07:00:49;6.50;99.90
51733;DHT22;39139;53.144;6.244;2023-02-01T07:03:16;6.40;99.90
51733;DHT22;39139;53.144;6.244;2023-02-01T07:05:42;6.40;99.90
51733;DHT22;39139;53.144;6.244;2023-02-01T07:08:07;6.40;99.90
51733;DHT22;39139;53.144;6.244;2023-02-01T07:10:34;6.50;99.90
51733;DHT22;39139;53.144;6.244;2023-02-01T07:13:00;6.50;99.90
51733;DHT22;39139;53.144;6.244;2023-02-01T07:15:25;6.50;99.90
51733;DHT22;39139;53.144;6.244;2023-02-01T07:17:54;6.40;99.90
51733;DHT22;39139;53.144;6.244;2023-02-01T07:20:20;6.40;99.90
51733;DHT22;39139;53.144;6.244;2023-02-01T07:22:46;6.40;99.90
51733;DHT22;39139;53.144;6.244;2023-02-01T07:25:11;6.30;99.90
51733;DHT22;39139;53.144;6.244;2023-02-01T07:27:37;6.30;99.90
51733;DHT22;39139;53.144;6.244;2023-02-01T07:30:07;6.30;99.90
51733;DHT22;39139;53.144;6.244;2023-02-01T07:32:32;6.30;99.90
51733;DHT22;39139;53.144;6.244;2023-02-01T07:34:58;6.30;99.90
51733;DHT22;39139;53.144;6.244;2023-02-01T07:37:24;6.30;99.90
51733;DHT22;39139;53.144;6.244;2023-02-01T07:39:51;6.30;99.90
51733;DHT22;39139;53.144;6.244;2023-02-01T07:42:17;6.40;99.90
51733;DHT22;39139;53.144;6.244;2023-02-01T07:44:43;6.20;99.90
51733;DHT22;39139;53.144;6.244;2023-02-01T07:47:08;6.20;99.90
51733;DHT22;39139;53.144;6.244;2023-02-01T07:49:34;6.20;99.90
51733;DHT22;39139;53.144;6.244;2023-02-01T07:52:00;6.10;99.90
51733;DHT22;39139;53.144;6.244;2023-02-01T07:54:25;6.20;99.90
51733;DHT22;39139;53.144;6.244;2023-02-01T07:56:51;6.20;99.90
51733;DHT22;39139;53.144;6.244;2023-02-01T07:59:17;6.20;99.90
51733;DHT22;39139;53.144;6.244;2023-02-01T08:01:42;6.30;99.90
51733;DHT22;39139;53.144;6.244;2023-02-01T08:04:11;6.30;99.90
51733;DHT22;39139;53.144;6.244;2023-02-01T08:06:37;6.30;99.90
51733;DHT22;39139;53.144;6.244;2023-02-01T08:09:03;6.40;99.90
51733;DHT22;39139;53.144;6.244;2023-02-01T08:11:29;6.40;99.90
51733;DHT22;39139;53.144;6.244;2023-02-01T08:13:55;6.40;99.90
51733;DHT22;39139;53.144;6.244;2023-02-01T08:16:22;6.40;99.90
51733;DHT22;39139;53.144;6.244;2023-02-01T08:18:48;6.40;99.90
51733;DHT22;39139;53.144;6.244;2023-02-01T08:21:20;6.40;99.90
51733;DHT22;39139;53.144;6.244;2023-02-01T08:23:47;6.50;99.90
51733;DHT22;39139;53.144;6.244;2023-02-01T08:26:24;6.50;99.90
51733;DHT22;39139;53.144;6.244;2023-02-01T08:28:55;6.50;99.90
51733;DHT22;39139;53.144;6.244;2023-02-01T08:31:23;6.50;99.90
51733;DHT22;39139;53.144;6.244;2023-02-01T08:33:51;6.50;99.90
51733;DHT22;39139;53.144;6.244;2023-02-01T08:36:18;6.80;99.90
51733;DHT22;39139;53.144;6.244;2023-02-01T08:38:44;6.40;99.90
51733;DHT22;39139;53.144;6.244;2023-02-01T08:41:13;6.50;99.90
51733;DHT22;39139;53.144;6.244;2023-02-01T08:43:40;5.20;99.90
51733;DHT22;39139;53.144;6.244;2023-02-01T08:46:06;6.50;99.90
51733;DHT22;39139;53.144;6.244;2023-02-01T08:48:33;6.40;99.90
51733;DHT22;39139;53.144;6.244;2023-02-01T08:51:08;6.50;99.90
51733;DHT22;39139;53.144;6.244;2023-02-01T08:53:35;6.60;99.90
51733;DHT22;39139;53.144;6.244;2023-02-01T08:56:01;6.50;99.90
51733;DHT22;39139;53.144;6.244;2023-02-01T08:58:27;6.50;99.90
51733;DHT22;39139;53.144;6.244;2023-02-01T09:00:53;6.50;99.90
51733;DHT22;39139;53.144;6.244;2023-02-01T09:03:19;6.50;99.90
51733;DHT22;39139;53.144;6.244;2023-02-01T09:05:44;6.50;99.90
51733;DHT22;39139;53.144;6.244;2023-02-01T09:08:11;6.50;99.90
51733;DHT22;39139;53.144;6.244;2023-02-01T09:10:41;6.60;99.90
51733;DHT22;39139;53.144;6.244;2023-02-01T09:13:08;6.50;99.90
51733;DHT22;39139;53.144;6.244;2023-02-01T09:15:34;6.60;99.90
51733;DHT22;39139;53.144;6.244;2023-02-01T09:17:59;6.60;99.90
51733;DHT22;39139;53.144;6.244;2023-02-01T09:20:25;6.50;99.90
51733;DHT22;39139;53.144;6.244;2023-02-01T09:22:52;6.50;99.90
51733;DHT22;39139;53.144;6.244;2023-02-01T09:25:18;6.50;99.90
51733;DHT22;39139;53.144;6.244;2023-02-01T09:27:44;6.60;99.90
51733;DHT22;39139;53.144;6.244;2023-02-01T09:30:10;6.60;99.90
51733;DHT22;39139;53.144;6.244;2023-02-01T09:32:36;6.60;99.90
51733;DHT22;39139;53.144;6.244;2023-02-01T09:35:01;6.60;99.90
51733;DHT22;39139;53.144;6.244;2023-02-01T09:37:27;6.60;99.90
51733;DHT22;39139;53.144;6.244;2023-02-01T09:39:53;6.60;99.90
51733;DHT22;39139;53.144;6.244;2023-02-01T09:48:14;6.60;99.90
51733;DHT22;39139;53.144;6.244;2023-02-01T09:50:46;6.50;99.90
51733;DHT22;39139;53.144;6.244;2023-02-01T09:53:23;6.60;99.90
51733;DHT22;39139;53.144;6.244;2023-02-01T09:55:51;6.60;99.90
51733;DHT22;39139;53.144;6.244;2023-02-01T09:58:39;6.60;99.90
51733;DHT22;39139;53.144;6.244;2023-02-01T10:01:18;6.60;99.90
51733;DHT22;39139;53.144;6.244;2023-02-01T10:03:45;6.60;99.90
51733;DHT22;39139;53.144;6.244;2023-02-01T10:09:14;6.60;99.90
51733;DHT22;39139;53.144;6.244;2023-02-01T10:11:49;6.70;99.90
51733;DHT22;39139;53.144;6.244;2023-02-01T10:27:42;6.80;99.90
51733;DHT22;39139;53.144;6.244;2023-02-01T10:30:24;6.90;99.90
51733;DHT22;39139;53.144;6.244;2023-02-01T10:33:00;6.80;99.90
51733;DHT22;39139;53.144;6.244;2023-02-01T10:35:33;6.90;99.90
51733;DHT22;39139;53.144;6.244;2023-02-01T10:38:16;7.00;99.90
51733;DHT22;39139;53.144;6.244;2023-02-01T10:40:42;7.10;99.90
51733;DHT22;39139;53.144;6.244;2023-02-01T10:43:09;7.10;99.90
51733;DHT22;39139;53.144;6.244;2023-02-01T10:45:37;7.00;99.90
51733;DHT22;39139;53.144;6.244;2023-02-01T10:48:05;7.10;99.90
51733;DHT22;39139;53.144;6.244;2023-02-01T10:55:53;7.30;99.90
51733;DHT22;39139;53.144;6.244;2023-02-01T10:58:28;7.20;99.90
51733;DHT22;39139;53.144;6.244;2023-02-01T11:01:06;7.30;99.90
51733;DHT22;39139;53.144;6.244;2023-02-01T11:03:58;7.20;99.90
51733;DHT22;39139;53.144;6.244;2023-02-01T11:09:10;7.20;99.90
51733;DHT22;39139;53.144;6.244;2023-02-01T11:14:37;7.20;99.90
51733;DHT22;39139;53.144;6.244;2023-02-01T11:17:21;7.20;99.90
51733;DHT22;39139;53.144;6.244;2023-02-01T11:20:01;7.40;99.90
51733;DHT22;39139;53.144;6.244;2023-02-01T11:22:28;7.40;99.90
51733;DHT22;39139;53.144;6.244;2023-02-01T11:24:55;7.70;99.90
51733;DHT22;39139;53.144;6.244;2023-02-01T11:27:22;7.50;99.90
51733;DHT22;39139;53.144;6.244;2023-02-01T11:29:54;7.60;99.90
51733;DHT22;39139;53.144;6.244;2023-02-01T11:32:22;7.50;99.90
51733;DHT22;39139;53.144;6.244;2023-02-01T11:35:01;7.40;99.90
51733;DHT22;39139;53.144;6.244;2023-02-01T11:37:35;7.30;99.90
51733;DHT22;39139;53.144;6.244;2023-02-01T11:42:56;7.40;99.90
51733;DHT22;39139;53.144;6.244;2023-02-01T11:45:28;7.40;99.90
51733;DHT22;39139;53.144;6.244;2023-02-01T11:47:55;7.40;99.90
51733;DHT22;39139;53.144;6.244;2023-02-01T11:55:53;7.60;99.90
51733;DHT22;39139;53.144;6.244;2023-02-01T12:07:23;8.10;99.90
51733;DHT22;39139;53.144;6.244;2023-02-01T12:10:18;8.20;99.90
51733;DHT22;39139;53.144;6.244;2023-02-01T12:16:08;8.30;99.90
51733;DHT22;39139;53.144;6.244;2023-02-01T12:18:58;8.40;99.90
51733;DHT22;39139;53.144;6.244;2023-02-01T12:24:25;8.40;99.90
51733;DHT22;39139;53.144;6.244;2023-02-01T12:27:03;8.50;99.90
51733;DHT22;39139;53.144;6.244;2023-02-01T12:30:32;8.50;99.90
51733;DHT22;39139;53.144;6.244;2023-02-01T12:32:45;8.60;99.90
51733;DHT22;39139;53.144;6.244;2023-02-01T12:46:48;8.50;99.90
51733;DHT22;39139;53.144;6.244;2023-02-01T12:49:16;8.50;99.90
51733;DHT22;39139;53.144;6.244;2023-02-01T12:51:45;8.60;99.90
51733;DHT22;39139;53.144;6.244;2023-02-01T12:56:57;8.30;99.90
51733;DHT22;39139;53.144;6.244;2023-02-01T12:59:44;8.40;99.90
51733;DHT22;39139;53.144;6.244;2023-02-01T13:02:30;8.30;99.90
51733;DHT22;39139;53.144;6.244;2023-02-01T13:05:17;8.30;99.90
51733;DHT22;39139;53.144;6.244;2023-02-01T13:08:06;9.40;99.90
51733;DHT22;39139;53.144;6.244;2023-02-01T13:10:41;8.40;99.90
51733;DHT22;39139;53.144;6.244;2023-02-01T13:15:55;8.40;99.90
51733;DHT22;39139;53.144;6.244;2023-02-01T13:18:25;8.40;99.90
51733;DHT22;39139;53.144;6.244;2023-02-01T13:21:02;8.40;99.90
51733;DHT22;39139;53.144;6.244;2023-02-01T13:23:36;8.40;99.90
51733;DHT22;39139;53.144;6.244;2023-02-01T13:26:02;8.30;99.90
51733;DHT22;39139;53.144;6.244;2023-02-01T13:28:46;8.30;99.90
51733;DHT22;39139;53.144;6.244;2023-02-01T13:31:52;8.20;99.90
51733;DHT22;39139;53.144;6.244;2023-02-01T13:37:31;8.10;99.90
51733;DHT22;39139;53.144;6.244;2023-02-01T13:43:05;8.20;99.90
51733;DHT22;39139;53.144;6.244;2023-02-01T13:45:34;8.20;99.90
51733;DHT22;39139;53.144;6.244;2023-02-01T13:48:04;8.30;99.90
51733;DHT22;39139;53.144;6.244;2023-02-01T13:55:39;8.30;99.90
51733;DHT22;39139;53.144;6.244;2023-02-01T13:58:32;8.20;99.90
51733;DHT22;39139;53.144;6.244;2023-02-01T14:04:00;8.30;99.90
51733;DHT22;39139;53.144;6.244;2023-02-01T14:19:29;8.40;99.90
51733;DHT22;39139;53.144;6.244;2023-02-01T14:24:51;8.40;99.90
51733;DHT22;39139;53.144;6.244;2023-02-01T14:27:39;8.40;99.90
51733;DHT22;39139;53.144;6.244;2023-02-01T14:30:14;8.40;99.90
51733;DHT22;39139;53.144;6.244;2023-02-01T14:32:41;8.40;99.90
51733;DHT22;39139;53.144;6.244;2023-02-01T14:35:24;8.40;99.90
51733;DHT22;39139;53.144;6.244;2023-02-01T14:37:53;8.30;99.90
51733;DHT22;39139;53.144;6.244;2023-02-01T14:40:27;8.40;99.90
51733;DHT22;39139;53.144;6.244;2023-02-01T14:42:54;8.30;99.90
51733;DHT22;39139;53.144;6.244;2023-02-01T14:55:45;8.20;99.90
51733;DHT22;39139;53.144;6.244;2023-02-01T15:00:55;8.10;99.90
51733;DHT22;39139;53.144;6.244;2023-02-01T15:03:45;8.10;99.90
51733;DHT22;39139;53.144;6.244;2023-02-01T15:06:38;8.10;99.90
51733;DHT22;39139;53.144;6.244;2023-02-01T15:17:28;8.00;99.90
51733;DHT22;39139;53.144;6.244;2023-02-01T15:20:15;7.90;99.90
51733;DHT22;39139;53.144;6.244;2023-02-01T15:22:42;7.90;99.90
51733;DHT22;39139;53.144;6.244;2023-02-01T15:25:22;7.80;99.90
51733;DHT22;39139;53.144;6.244;2023-02-01T15:27:48;7.80;99.90
51733;DHT22;39139;53.144;6.244;2023-02-01T15:30:20;7.80;99.90
51733;DHT22;39139;53.144;6.244;2023-02-01T15:32:46;7.80;99.90
51733;DHT22;39139;53.144;6.244;2023-02-01T15:35:38;7.90;99.90
51733;DHT22;39139;53.144;6.244;2023-02-01T15:41:21;7.80;99.90
51733;DHT22;39139;53.144;6.244;2023-02-01T15:46:38;7.70;99.90
51733;DHT22;39139;53.144;6.244;2023-02-01T15:49:05;7.70;99.90
51733;DHT22;39139;53.144;6.244;2023-02-01T15:51:44;7.80;99.90
51733;DHT22;39139;53.144;6.244;2023-02-01T15:54:18;7.70;99.90
51733;DHT22;39139;53.144;6.244;2023-02-01T15:56:51;7.70;99.90
51733;DHT22;39139;53.144;6.244;2023-02-01T15:59:28;7.60;99.90
51733;DHT22;39139;53.144;6.244;2023-02-01T16:01:55;7.50;99.90
51733;DHT22;39139;53.144;6.244;2023-02-01T16:04:23;7.50;99.90
51733;DHT22;39139;53.144;6.244;2023-02-01T16:06:55;7.40;99.90
51733;DHT22;39139;53.144;6.244;2023-02-01T16:09:39;7.40;99.90
51733;DHT22;39139;53.144;6.244;2023-02-01T16:15:04;7.40;99.90
51733;DHT22;39139;53.144;6.244;2023-02-01T16:17:30;7.30;99.90
51733;DHT22;39139;53.144;6.244;2023-02-01T16:19:55;7.20;99.90
51733;DHT22;39139;53.144;6.244;2023-02-01T16:22:22;7.20;99.90
51733;DHT22;39139;53.144;6.244;2023-02-01T16:24:48;7.20;99.90
51733;DHT22;39139;53.144;6.244;2023-02-01T16:27:14;7.20;99.90
51733;DHT22;39139;53.144;6.244;2023-02-01T16:29:39;7.20;99.90
51733;DHT22;39139;53.144;6.244;2023-02-01T16:32:05;7.10;99.90
51733;DHT22;39139;53.144;6.244;2023-02-01T16:34:31;7.10;99.90
51733;DHT22;39139;53.144;6.244;2023-02-01T16:36:57;7.10;99.90
51733;DHT22;39139;53.144;6.244;2023-02-01T16:39:24;7.00;99.90
51733;DHT22;39139;53.144;6.244;2023-02-01T16:41:50;7.00;99.90
51733;DHT22;39139;53.144;6.244;2023-02-01T16:44:15;7.00;99.90
51733;DHT22;39139;53.144;6.244;2023-02-01T16:46:43;7.00;99.90
51733;DHT22;39139;53.144;6.244;2023-02-01T16:49:28;7.00;99.90
51733;DHT22;39139;53.144;6.244;2023-02-01T16:51:57;7.00;99.90
51733;DHT22;39139;53.144;6.244;2023-02-01T16:54:23;7.00;99.90
51733;DHT22;39139;53.144;6.244;2023-02-01T16:56:49;6.00;99.90
51733;DHT22;39139;53.144;6.244;2023-02-01T16:59:15;7.00;99.90
51733;DHT22;39139;53.144;6.244;2023-02-01T17:01:41;7.20;99.90
51733;DHT22;39139;53.144;6.244;2023-02-01T17:04:09;7.00;99.90
51733;DHT22;39139;53.144;6.244;2023-02-01T17:06:36;7.10;99.90
51733;DHT22;39139;53.144;6.244;2023-02-01T17:09:03;7.10;99.90
51733;DHT22;39139;53.144;6.244;2023-02-01T17:11:29;7.10;99.90
51733;DHT22;39139;53.144;6.244;2023-02-01T17:13:57;7.10;99.90
51733;DHT22;39139;53.144;6.244;2023-02-01T17:16:27;7.00;99.90
51733;DHT22;39139;53.144;6.244;2023-02-01T17:18:58;7.00;99.90
51733;DHT22;39139;53.144;6.244;2023-02-01T17:21:25;6.90;99.90
51733;DHT22;39139;53.144;6.244;2023-02-01T17:23:52;7.00;99.90
51733;DHT22;39139;53.144;6.244;2023-02-01T17:26:19;6.80;99.90
51733;DHT22;39139;53.144;6.244;2023-02-01T17:28:44;6.80;99.90
51733;DHT22;39139;53.144;6.244;2023-02-01T17:31:13;6.80;99.90
51733;DHT22;39139;53.144;6.244;2023-02-01T17:33:40;6.70;99.90
51733;DHT22;39139;53.144;6.244;2023-02-01T17:36:11;6.90;99.90
51733;DHT22;39139;53.144;6.244;2023-02-01T17:38:37;6.70;99.90
51733;DHT22;39139;53.144;6.244;2023-02-01T17:41:03;6.80;99.90
51733;DHT22;39139;53.144;6.244;2023-02-01T17:43:29;6.70;99.90
51733;DHT22;39139;53.144;6.244;2023-02-01T17:45:57;6.60;99.90
51733;DHT22;39139;53.144;6.244;2023-02-01T17:48:24;6.50;99.90
51733;DHT22;39139;53.144;6.244;2023-02-01T17:50:51;6.60;99.90
51733;DHT22;39139;53.144;6.244;2023-02-01T17:53:20;6.60;99.90
51733;DHT22;39139;53.144;6.244;2023-02-01T17:55:49;6.50;99.90
51733;DHT22;39139;53.144;6.244;2023-02-01T17:58:16;6.50;99.90
51733;DHT22;39139;53.144;6.244;2023-02-01T18:00:43;6.50;99.90
51733;DHT22;39139;53.144;6.244;2023-02-01T18:03:24;6.50;99.90
51733;DHT22;39139;53.144;6.244;2023-02-01T18:05:52;6.60;99.90
51733;DHT22;39139;53.144;6.244;2023-02-01T18:08:19;6.60;99.90
51733;DHT22;39139;53.144;6.244;2023-02-01T18:10:48;6.60;99.90
51733;DHT22;39139;53.144;6.244;2023-02-01T18:13:14;6.50;99.90
51733;DHT22;39139;53.144;6.244;2023-02-01T18:15:40;6.60;99.90
51733;DHT22;39139;53.144;6.244;2023-02-01T18:18:06;6.60;99.90
51733;DHT22;39139;53.144;6.244;2023-02-01T18:20:31;6.70;99.90
51733;DHT22;39139;53.144;6.244;2023-02-01T18:22:57;6.70;99.90
51733;DHT22;39139;53.144;6.244;2023-02-01T18:25:25;6.70;99.90
51733;DHT22;39139;53.144;6.244;2023-02-01T18:27:53;6.70;99.90
51733;DHT22;39139;53.144;6.244;2023-02-01T18:30:21;6.80;99.90
51733;DHT22;39139;53.144;6.244;2023-02-01T18:32:48;6.80;99.90
51733;DHT22;39139;53.144;6.244;2023-02-01T18:35:20;6.80;99.90
51733;DHT22;39139;53.144;6.244;2023-02-01T18:37:47;6.90;99.90
51733;DHT22;39139;53.144;6.244;2023-02-01T18:40:15;6.90;99.90
51733;DHT22;39139;53.144;6.244;2023-02-01T18:42:41;6.80;99.90
51733;DHT22;39139;53.144;6.244;2023-02-01T18:47:56;6.80;99.90